createdAt,value
2022-08-25T00:01:30.434Z,101630.59
2022-08-25T00:04:00.346Z,101612.56
2022-08-25T00:06:28.327Z,101619.63
2022-08-25T00:08:59.404Z,101629.94
2022-08-25T00:11:29.528Z,101641.59
2022-08-25T00:13:59.371Z,101625.56
2022-08-25T00:16:26.496Z,101624.22
2022-08-25T00:18:56.749Z,101627.41
2022-08-25T00:21:24.281Z,101623.38
2022-08-25T00:23:51.112Z,101624.69
2022-08-25T00:26:18.551Z,101631.13
2022-08-25T00:28:45.315Z,101616.63
2022-08-25T00:31:17.278Z,101628.44
2022-08-25T00:33:45.297Z,101625.72
2022-08-25T00:36:12.501Z,101622.19
2022-08-25T00:38:40.663Z,101626.75
2022-08-25T00:41:10.027Z,101625.88
2022-08-25T00:43:45.945Z,101632.16
2022-08-25T00:46:15.625Z,101625.88
2022-08-25T00:48:44.644Z,101632.34
2022-08-25T00:51:14.865Z,101626.09
2022-08-25T00:53:42.059Z,101625.22
2022-08-25T00:56:08.631Z,101614.09
2022-08-25T00:58:37.191Z,101619.81
2022-08-25T01:01:04.090Z,101627.09
2022-08-25T01:03:35.913Z,101626.25
2022-08-25T01:06:04.277Z,101631.66
2022-08-25T01:08:32.639Z,101631.66
2022-08-25T01:11:03.659Z,101627.47
2022-08-25T01:13:41.284Z,101634.53
2022-08-25T01:16:08.058Z,101634.53
2022-08-25T01:18:43.616Z,101629.28
2022-08-25T01:21:10.213Z,101632.88
2022-08-25T01:23:37.173Z,101622.03
2022-08-25T01:26:26.145Z,101626.59
2022-08-25T01:29:17.942Z,101625.75
2022-08-25T01:31:45.177Z,101621.38
2022-08-25T01:34:12.960Z,101622.38
2022-08-25T01:36:40.962Z,101622.38
2022-08-25T01:39:07.471Z,101610.59
2022-08-25T01:41:33.889Z,101624.25
2022-08-25T01:44:03.118Z,101626.13
2022-08-25T01:46:29.610Z,101626.94
2022-08-25T01:48:56.075Z,101620.72
2022-08-25T01:51:25.482Z,101621.72
2022-08-25T01:53:51.910Z,101629.81
2022-08-25T01:56:18.483Z,101627.31
2022-08-25T01:58:49.623Z,101624.41
2022-08-25T02:01:24.393Z,101625.44
2022-08-25T02:03:53.466Z,101626.28
2022-08-25T02:06:34.456Z,101626.44
2022-08-25T02:09:11.008Z,101615.63
2022-08-25T02:11:40.520Z,101621.03
2022-08-25T02:14:07.925Z,101604.19
2022-08-25T02:16:37.066Z,101619.72
2022-08-25T02:19:07.632Z,101626.66
2022-08-25T02:21:35.321Z,101622.06
2022-08-25T02:24:02.958Z,101620.41
2022-08-25T02:26:30.182Z,101613.16
2022-08-25T02:28:56.732Z,101617.69
2022-08-25T02:31:25.334Z,101612.63
2022-08-25T02:33:53.266Z,101617.69
2022-08-25T02:36:20.267Z,101614.66
2022-08-25T02:38:47.108Z,101616.16
2022-08-25T02:41:20.170Z,101625.16
2022-08-25T02:43:48.598Z,101590.56
2022-08-25T02:46:17.129Z,101609.91
2022-08-25T02:48:43.640Z,101620.72
2022-08-25T02:51:10.675Z,101608.78
2022-08-25T02:53:40.411Z,101620.72
2022-08-25T02:56:09.753Z,101617.19
2022-08-25T02:58:38.488Z,101616.34
2022-08-25T03:01:05.909Z,101619.91
2022-08-25T03:03:37.538Z,101608.78
2022-08-25T03:06:10.791Z,101604.66
2022-08-25T03:08:37.746Z,101601.50
2022-08-25T03:11:05.559Z,101602.16
2022-08-25T03:13:32.408Z,101596.06
2022-08-25T03:16:00.409Z,101595.88
2022-08-25T03:18:27.624Z,101592.03
2022-08-25T03:20:55.083Z,101599.63
2022-08-25T03:23:21.822Z,101598.78
2022-08-25T03:26:07.027Z,101604.19
2022-08-25T03:28:33.931Z,101604.19
2022-08-25T03:31:01.348Z,101602.50
2022-08-25T03:33:29.419Z,101599.78
2022-08-25T03:35:56.414Z,101599.78
2022-08-25T03:38:25.317Z,101594.91
2022-08-25T03:40:52.368Z,101599.97
2022-08-25T03:43:19.313Z,101599.97
2022-08-25T03:45:47.702Z,101601.00
2022-08-25T03:48:14.850Z,101591.91
2022-08-25T03:50:51.933Z,101604.53
2022-08-25T03:53:19.781Z,101606.56
2022-08-25T03:55:47.287Z,101601.16
2022-08-25T03:58:14.318Z,101588.53
2022-08-25T04:00:40.876Z,101591.53
2022-08-25T04:03:07.587Z,101601.16
2022-08-25T04:05:34.237Z,101591.38
2022-08-25T04:08:01.975Z,101602.19
2022-08-25T04:10:29.139Z,101603.56
2022-08-25T04:12:56.149Z,101598.66
2022-08-25T04:15:22.896Z,101585.97
2022-08-25T04:17:51.919Z,101592.38
2022-08-25T04:20:20.501Z,101586.66
2022-08-25T04:22:47.070Z,101596.09
2022-08-25T04:25:13.898Z,101597.13
2022-08-25T04:27:40.792Z,101604.59
2022-08-25T04:30:07.747Z,101603.91
2022-08-25T04:32:36.308Z,101601.22
2022-08-25T04:35:04.372Z,101597.63
2022-08-25T04:37:31.068Z,101597.63
2022-08-25T04:39:59.994Z,101603.56
2022-08-25T04:42:26.979Z,101601.88
2022-08-25T04:44:54.371Z,101604.59
2022-08-25T04:47:21.145Z,101606.41
2022-08-25T04:49:47.854Z,101601.22
2022-08-25T04:52:14.795Z,101598.00
2022-08-25T04:54:42.099Z,101606.41
2022-08-25T04:57:08.551Z,101600.34
2022-08-25T04:59:35.001Z,101602.22
2022-08-25T05:02:03.283Z,101595.44
2022-08-25T05:04:31.230Z,101597.31
2022-08-25T05:06:58.375Z,101605.59
2022-08-25T05:09:26.153Z,101602.56
2022-08-25T05:11:53.862Z,101602.63
2022-08-25T05:14:25.676Z,101606.03
2022-08-25T05:16:54.196Z,101606.72
2022-08-25T05:19:20.754Z,101590.66
2022-08-25T05:21:47.879Z,101599.63
2022-08-25T05:24:14.407Z,101605.16
2022-08-25T05:26:40.970Z,101591.34
2022-08-25T05:29:07.822Z,101603.00
2022-08-25T05:31:38.459Z,101609.75
2022-08-25T05:34:08.715Z,101614.63
2022-08-25T05:36:35.570Z,101596.41
2022-08-25T05:39:02.285Z,101606.88
2022-08-25T05:41:30.351Z,101617.88
2022-08-25T05:43:57.214Z,101622.09
2022-08-25T05:46:24.754Z,101617.34
2022-08-25T05:48:51.844Z,101618.88
2022-08-25T05:51:18.935Z,101613.16
2022-08-25T05:53:47.902Z,101609.09
2022-08-25T05:56:14.743Z,101601.81
2022-08-25T05:58:42.421Z,101607.75
2022-08-25T06:01:28.749Z,101603.00
2022-08-25T06:03:55.323Z,101602.16
2022-08-25T06:06:23.227Z,101599.78
2022-08-25T06:08:50.026Z,101604.16
2022-08-25T06:11:17.079Z,101584.25
2022-08-25T06:13:43.755Z,101582.06
2022-08-25T06:16:10.452Z,101592.66
2022-08-25T06:18:37.101Z,101585.91
2022-08-25T06:21:14.695Z,101593.34
2022-08-25T06:23:41.825Z,101602.28
2022-08-25T06:26:19.072Z,101598.59
2022-08-25T06:28:48.362Z,101598.28
2022-08-25T06:31:15.143Z,101589.97
2022-08-25T06:33:41.667Z,101588.78
2022-08-25T06:36:08.755Z,101598.22
2022-08-25T06:38:35.981Z,101595.53
2022-08-25T06:41:07.390Z,101593.50
2022-08-25T06:43:34.605Z,101577.13
2022-08-25T06:46:10.396Z,101590.78
2022-08-25T06:48:37.362Z,101572.22
2022-08-25T06:51:14.136Z,101576.97
2022-08-25T06:53:42.484Z,101593.50
2022-08-25T06:56:10.042Z,101593.16
2022-08-25T06:58:37.154Z,101588.59
2022-08-25T07:01:26.208Z,101585.06
2022-08-25T07:03:57.827Z,101598.22
2022-08-25T07:06:26.023Z,101598.22
2022-08-25T07:08:53.445Z,101588.44
2022-08-25T07:11:22.729Z,101599.91
2022-08-25T07:13:50.441Z,101594.31
2022-08-25T07:16:18.706Z,101593.31
2022-08-25T07:18:45.452Z,101589.59
2022-08-25T07:21:13.918Z,101590.41
2022-08-25T07:23:41.961Z,101582.66
2022-08-25T07:26:33.644Z,101599.19
2022-08-25T07:28:58.803Z,101578.97
2022-08-25T07:31:27.088Z,101600.75
2022-08-25T07:34:14.780Z,101603.44
2022-08-25T07:36:43.310Z,101610.38
2022-08-25T07:39:10.139Z,101603.09
2022-08-25T07:41:39.525Z,101601.22
2022-08-25T07:44:06.782Z,101601.88
2022-08-25T07:46:34.104Z,101579.75
2022-08-25T07:49:00.616Z,101592.78
2022-08-25T07:53:58.531Z,101589.56
2022-08-25T07:56:27.781Z,101598.19
2022-08-25T07:58:54.256Z,101603.78
2022-08-25T08:01:23.284Z,101612.56
2022-08-25T08:03:51.637Z,101607.97
2022-08-25T08:06:22.423Z,101605.94
2022-08-25T08:08:54.732Z,101610.31
2022-08-25T08:11:30.186Z,101610.16
2022-08-25T08:13:58.221Z,101601.88
2022-08-25T08:16:30.018Z,101605.25
2022-08-25T08:18:58.413Z,101593.09
2022-08-25T08:21:30.928Z,101601.34
2022-08-25T08:23:59.121Z,101591.91
2022-08-25T08:26:36.266Z,101603.69
2022-08-25T08:29:08.450Z,101523.53
2022-08-25T08:31:36.539Z,101586.47
2022-08-25T08:34:03.659Z,101587.75
2022-08-25T08:36:30.107Z,101592.16
2022-08-25T08:38:56.525Z,101590.13
2022-08-25T08:44:46.940Z,101589.78
2022-08-25T08:47:38.050Z,101585.03
2022-08-25T08:50:23.078Z,101573.91
2022-08-25T08:53:34.127Z,101583.00
2022-08-25T08:56:14.918Z,101566.63
2022-08-25T08:58:49.834Z,101561.88
2022-08-25T09:01:26.672Z,101551.09
2022-08-25T09:04:08.483Z,101578.75
2022-08-25T09:06:41.129Z,101585.81
2022-08-25T09:09:11.521Z,101587.53
2022-08-25T09:11:57.216Z,101583.78
2022-08-25T09:14:45.930Z,101580.06
2022-08-25T09:17:38.490Z,101570.75
2022-08-25T09:20:29.784Z,101567.00
2022-08-25T09:23:14.811Z,101570.56
2022-08-25T09:25:55.231Z,101577.66
2022-08-25T09:28:40.808Z,101566.34
2022-08-25T09:31:29.196Z,101573.59
2022-08-25T09:34:00.007Z,101586.09
2022-08-25T09:36:26.997Z,101582.38
2022-08-25T09:38:53.569Z,101578.50
2022-08-25T09:41:44.554Z,101580.16
2022-08-25T09:44:42.287Z,101564.44
2022-08-25T09:47:17.493Z,101571.69
2022-08-25T09:49:50.612Z,101576.94
2022-08-25T09:52:26.299Z,101571.34
2022-08-25T09:54:56.937Z,101567.63
2022-08-25T09:57:45.353Z,101573.88
2022-08-25T10:00:13.744Z,101567.41
2022-08-25T10:02:42.658Z,101568.09
2022-08-25T10:05:35.138Z,101572.50
2022-08-25T10:08:10.063Z,101567.75
2022-08-25T10:10:46.172Z,101563.00
2022-08-25T10:13:22.841Z,101564.81
2022-08-25T10:16:04.795Z,101561.94
2022-08-25T10:19:11.125Z,101557.19
2022-08-25T10:21:40.795Z,101552.63
2022-08-25T10:24:10.036Z,101545.34
2022-08-25T10:26:47.653Z,101540.78
2022-08-25T10:29:27.133Z,101545.81
2022-08-25T10:32:12.043Z,101542.94
2022-08-25T10:34:46.035Z,101540.06
2022-08-25T10:37:40.476Z,101534.66
2022-08-25T10:40:29.974Z,101534.81
2022-08-25T10:43:23.801Z,101537.81
2022-08-25T10:46:01.644Z,101530.53
2022-08-25T10:48:47.762Z,101519.50
2022-08-25T10:51:40.060Z,101521.22
2022-08-25T10:54:31.841Z,101505.69
2022-08-25T10:57:17.265Z,101517.28
2022-08-25T11:00:00.467Z,101522.53
2022-08-25T11:02:52.174Z,101523.16
2022-08-25T11:05:33.120Z,101515.91
2022-08-25T11:08:10.703Z,101504.59
2022-08-25T11:10:44.438Z,101507.56
2022-08-25T11:13:30.844Z,101496.38
2022-08-25T11:16:19.857Z,101499.75
2022-08-25T11:19:34.671Z,101503.31
2022-08-25T11:22:26.051Z,101499.38
2022-08-25T11:25:20.010Z,101500.03
2022-08-25T11:28:06.546Z,101494.47
2022-08-25T11:30:33.701Z,101489.06
2022-08-25T11:33:00.518Z,101494.47
2022-08-25T11:35:34.322Z,101489.50
2022-08-25T11:38:31.309Z,101495.59
2022-08-25T11:41:12.979Z,101488.97
2022-08-25T11:44:04.512Z,101489.81
2022-08-25T11:46:31.925Z,101481.31
2022-08-25T11:49:32.106Z,101486.56
2022-08-25T11:52:02.729Z,101467.31
2022-08-25T11:54:36.775Z,101476.19
2022-08-25T11:57:07.683Z,101462.34
2022-08-25T11:59:52.342Z,101474.75
2022-08-25T12:02:34.230Z,101465.44
2022-08-25T12:05:01.394Z,101466.44
2022-08-25T12:07:49.934Z,101451.41
2022-08-25T12:10:20.936Z,101463.00
2022-08-25T12:12:48.950Z,101458.41
2022-08-25T12:15:32.145Z,101458.22
2022-08-25T12:18:11.477Z,101454.47
2022-08-25T12:20:53.201Z,101446.81
2022-08-25T12:24:06.405Z,101444.13
2022-08-25T12:26:50.413Z,101434.50
2022-08-25T12:29:31.904Z,101436.25
2022-08-25T12:32:02.423Z,101431.47
2022-08-25T12:34:31.429Z,101434.84
2022-08-25T12:37:06.173Z,101430.06
2022-08-25T12:39:42.849Z,101413.63
2022-08-25T12:42:35.993Z,101390.81
2022-08-25T12:45:20.183Z,101392.50
2022-08-25T12:47:48.708Z,101410.53
2022-08-25T12:50:33.378Z,101414.72
2022-08-25T12:53:14.179Z,101413.75
2022-08-25T12:55:47.207Z,101404.56
2022-08-25T12:58:15.198Z,101384.91
2022-08-25T13:01:17.434Z,101376.97
2022-08-25T13:04:14.479Z,101379.03
2022-08-25T13:06:46.652Z,101324.03
2022-08-25T13:09:58.629Z,101389.41
2022-08-25T13:12:35.089Z,101378.16
2022-08-25T13:15:01.567Z,101365.00
2022-08-25T13:17:33.770Z,101366.75
2022-08-25T13:20:29.175Z,101364.50
2022-08-25T13:22:59.367Z,101365.31
2022-08-25T13:25:32.327Z,101344.41
2022-08-25T13:28:04.798Z,101361.19
2022-08-25T13:30:35.378Z,101359.31
2022-08-25T13:33:23.796Z,101337.38
2022-08-25T13:36:13.164Z,101362.50
2022-08-25T13:38:40.302Z,101349.59
2022-08-25T13:41:11.007Z,101341.44
2022-08-25T13:43:38.897Z,101350.22
2022-08-25T13:46:06.229Z,101345.44
2022-08-25T13:48:39.427Z,101328.72
2022-08-25T13:51:31.340Z,101329.81
2022-08-25T13:54:01.124Z,101311.19
2022-08-25T13:56:38.409Z,101321.09
2022-08-25T13:59:21.372Z,101310.25
2022-08-25T14:01:50.053Z,101313.41
2022-08-25T14:04:26.008Z,101301.31
2022-08-25T14:07:14.153Z,101302.81
2022-08-25T14:09:48.114Z,101290.84
2022-08-25T14:12:49.866Z,101298.66
2022-08-25T14:15:20.065Z,101304.56
2022-08-25T14:17:59.552Z,101290.16
2022-08-25T14:20:29.676Z,101295.19
2022-08-25T14:22:59.520Z,101296.69
2022-08-25T14:25:30.334Z,101286.66
2022-08-25T14:28:08.262Z,101281.00
2022-08-25T14:30:39.757Z,101290.66
2022-08-25T14:33:10.524Z,101282.88
2022-08-25T14:35:37.951Z,101283.78
2022-08-25T14:38:09.948Z,101280.88
2022-08-25T14:40:37.074Z,101257.00
2022-08-25T14:43:04.069Z,101281.31
2022-08-25T14:45:31.373Z,101278.41
2022-08-25T14:48:05.345Z,101269.84
2022-08-25T14:50:38.133Z,101272.75
2022-08-25T14:53:08.325Z,101271.97
2022-08-25T14:55:34.961Z,101281.25
2022-08-25T14:58:02.018Z,101278.00
2022-08-25T15:00:29.022Z,101255.66
2022-08-25T15:02:55.675Z,101269.97
2022-08-25T15:05:26.948Z,101262.91
2022-08-25T15:08:13.817Z,101273.03
2022-08-25T15:10:40.660Z,101256.50
2022-08-25T15:13:07.182Z,101245.00
2022-08-25T15:15:38.111Z,101259.44
2022-08-25T15:18:05.501Z,101261.09
2022-08-25T15:20:32.732Z,101256.50
2022-08-25T15:22:59.673Z,101253.16
2022-08-25T15:25:26.652Z,101260.66
2022-08-25T15:27:54.141Z,101257.28
2022-08-25T15:30:21.099Z,101248.66
2022-08-25T15:32:57.563Z,101246.09
2022-08-25T15:35:24.399Z,101248.59
2022-08-25T15:37:55.697Z,101229.69
2022-08-25T15:40:22.340Z,101249.53
2022-08-25T15:42:48.891Z,101255.75
2022-08-25T15:45:15.512Z,101243.56
2022-08-25T15:47:42.099Z,101235.41
2022-08-25T15:50:14.463Z,101239.56
2022-08-25T15:52:46.485Z,101239.50
2022-08-25T15:55:17.074Z,101243.22
2022-08-25T15:57:43.803Z,101228.50
2022-08-25T16:00:12.193Z,101240.28
2022-08-25T16:02:40.417Z,101244.78
2022-08-25T16:05:09.081Z,101237.88
2022-08-25T16:07:35.892Z,101230.97
2022-08-25T16:10:03.962Z,101230.97
2022-08-25T16:12:31.638Z,101212.94
2022-08-25T16:14:58.290Z,101210.03
2022-08-25T16:17:25.060Z,101234.91
2022-08-25T16:19:51.555Z,101229.22
2022-08-25T16:22:18.105Z,101222.31
2022-08-25T16:24:45.064Z,101220.47
2022-08-25T16:27:14.044Z,101217.94
2022-08-25T16:29:42.742Z,101209.13
2022-08-25T16:32:11.491Z,101223.31
2022-08-25T16:34:40.664Z,101212.63
2022-08-25T16:37:08.403Z,101211.38
2022-08-25T16:39:35.790Z,101212.78
2022-08-25T16:42:02.263Z,101213.19
2022-08-25T16:44:28.899Z,101208.75
2022-08-25T16:46:56.478Z,101217.75
2022-08-25T16:49:24.344Z,101216.44
2022-08-25T16:51:57.075Z,101212.91
2022-08-25T16:54:43.768Z,101192.53
2022-08-25T16:57:10.833Z,101208.00
2022-08-25T16:59:37.351Z,101193.50
2022-08-25T17:02:04.114Z,101193.03
2022-08-25T17:04:32.277Z,101203.31
2022-08-25T17:06:59.771Z,101200.16
2022-08-25T17:09:26.279Z,101203.69
2022-08-25T17:11:56.647Z,101203.88
2022-08-25T17:14:23.624Z,101197.38
2022-08-25T17:16:54.574Z,101204.09
2022-08-25T17:19:21.275Z,101204.94
2022-08-25T17:21:50.174Z,101196.97
2022-08-25T17:24:17.144Z,101201.56
2022-08-25T17:26:46.274Z,101184.78
2022-08-25T17:29:13.016Z,101200.69
2022-08-25T17:31:40.296Z,101193.50
2022-08-25T17:34:10.583Z,101199.78
2022-08-25T17:36:38.444Z,101192.00
2022-08-25T17:39:08.800Z,101190.13
2022-08-25T17:41:37.769Z,101193.50
2022-08-25T17:44:05.614Z,101198.09
2022-08-25T17:46:32.539Z,101194.38
2022-08-25T17:48:59.331Z,101191.66
2022-08-25T17:51:25.840Z,101183.31
2022-08-25T17:53:52.806Z,101199.63
2022-08-25T17:56:22.188Z,101194.84
2022-08-25T17:58:49.277Z,101196.56
2022-08-25T18:01:22.755Z,101189.84
2022-08-25T18:03:49.402Z,101194.50
2022-08-25T18:06:16.566Z,101179.81
2022-08-25T18:08:44.450Z,101198.84
2022-08-25T18:11:20.125Z,101191.56
2022-08-25T18:13:46.992Z,101181.13
2022-08-25T18:16:13.614Z,101064.06
2022-08-25T18:18:42.191Z,101180.94
2022-08-25T18:21:14.347Z,101159.13
2022-08-25T18:23:42.428Z,101174.22
2022-08-25T18:26:12.806Z,101166.75
2022-08-25T18:28:40.053Z,101181.38
2022-08-25T18:31:11.975Z,101179.06
2022-08-25T18:33:41.959Z,101183.88
2022-08-25T18:36:09.547Z,101183.88
2022-08-25T18:38:58.276Z,101184.72
2022-08-25T18:41:26.338Z,101184.72
2022-08-25T18:43:53.481Z,101172.81
2022-08-25T18:46:22.693Z,101181.19
2022-08-25T18:48:52.969Z,101160.47
2022-08-25T18:51:23.024Z,101163.63
2022-08-25T18:53:51.020Z,101169.50
2022-08-25T18:56:19.155Z,101168.59
2022-08-25T18:58:46.978Z,101181.19
2022-08-25T19:01:15.030Z,101181.19
2022-08-25T19:03:43.056Z,101177.44
2022-08-25T19:06:09.854Z,101171.13
2022-08-25T19:08:39.414Z,101169.28
2022-08-25T19:11:08.604Z,101164.09
2022-08-25T19:13:35.230Z,101156.59
2022-08-25T19:16:17.817Z,101163.88
2022-08-25T19:18:48.974Z,101165.56
2022-08-25T19:21:22.848Z,101162.03
2022-08-25T19:23:50.540Z,101158.44
2022-08-25T19:26:17.998Z,101161.16
2022-08-25T19:28:48.582Z,101158.44
2022-08-25T19:31:16.431Z,101151.78
2022-08-25T19:33:46.023Z,101145.06
2022-08-25T19:36:14.118Z,101157.63
2022-08-25T19:38:41.646Z,101157.44
2022-08-25T19:41:09.441Z,101159.31
2022-08-25T19:43:50.585Z,101157.38
2022-08-25T19:46:25.160Z,101163.88
2022-08-25T19:48:51.716Z,101160.31
2022-08-25T19:51:19.273Z,101155.97
2022-08-25T19:53:52.302Z,101165.75
2022-08-25T19:56:21.541Z,101164.03
2022-08-25T19:58:48.019Z,101170.34
2022-08-25T20:01:16.584Z,101164.91
2022-08-25T20:03:44.826Z,101175.75
2022-08-25T20:06:11.346Z,101174.06
2022-08-25T20:08:37.846Z,101148.13
2022-08-25T20:11:04.528Z,101159.25
2022-08-25T20:13:31.100Z,101167.81
2022-08-25T20:15:58.801Z,101169.50
2022-08-25T20:18:25.547Z,101161.75
2022-08-25T20:20:52.560Z,101175.75
2022-08-25T20:23:37.993Z,101168.88
2022-08-25T20:26:05.190Z,101168.41
2022-08-25T20:28:31.625Z,101170.53
2022-08-25T20:30:58.217Z,101151.50
2022-08-25T20:33:24.769Z,101160.28
2022-08-25T20:35:53.065Z,101158.03
2022-08-25T20:38:19.887Z,101126.53
2022-08-25T20:40:46.397Z,101166.16
2022-08-25T20:43:15.323Z,101162.59
2022-08-25T20:45:42.108Z,101162.59
2022-08-25T20:48:09.571Z,101168.03
2022-08-25T20:50:38.567Z,101164.47
2022-08-25T20:53:10.246Z,101159.03
2022-08-25T20:55:43.843Z,101155.91
2022-08-25T20:58:12.447Z,101159.03
2022-08-25T21:00:45.907Z,101160.91
2022-08-25T21:03:12.484Z,101111.25
2022-08-25T21:05:40.687Z,101153.38
2022-08-25T21:08:08.365Z,101138.53
2022-08-25T21:10:35.324Z,101154.84
2022-08-25T21:13:02.050Z,101125.91
2022-08-25T21:15:28.711Z,101154.84
2022-08-25T21:17:55.775Z,101154.84
2022-08-25T21:20:24.091Z,101147.75
2022-08-25T21:22:51.608Z,101154.84
2022-08-25T21:25:21.814Z,101145.06
2022-08-25T21:27:49.277Z,101146.91
2022-08-25T21:30:16.259Z,101146.91
2022-08-25T21:32:52.903Z,101144.19
2022-08-25T21:35:21.564Z,101138.72
2022-08-25T21:37:53.393Z,101146.25
2022-08-25T21:40:22.587Z,101137.28
2022-08-25T21:42:49.867Z,101137.94
2022-08-25T21:45:16.479Z,101137.09
2022-08-25T21:47:47.599Z,101137.69
2022-08-25T21:50:14.187Z,101128.09
2022-08-25T21:52:41.232Z,101140.84
2022-08-25T21:55:15.669Z,101136.28
2022-08-25T21:57:43.182Z,101134.59
2022-08-25T22:00:11.588Z,101134.59
2022-08-25T22:02:38.494Z,101135.63
2022-08-25T22:05:09.359Z,101141.88
2022-08-25T22:07:40.395Z,101133.75
2022-08-25T22:10:09.489Z,101127.63
2022-08-25T22:12:43.547Z,101142.06
2022-08-25T22:15:13.641Z,101130.97
2022-08-25T22:17:40.631Z,101118.03
2022-08-25T22:20:08.374Z,101131.44
2022-08-25T22:22:36.078Z,101126.22
2022-08-25T22:25:03.003Z,101135.19
2022-08-25T22:27:30.324Z,101123.25
2022-08-25T22:29:58.087Z,101128.09
2022-08-25T22:32:24.634Z,101128.91
2022-08-25T22:34:51.166Z,101126.22
2022-08-25T22:37:18.085Z,101128.09
2022-08-25T22:39:45.577Z,101124.53
2022-08-25T22:42:12.544Z,101121.81
2022-08-25T22:44:40.014Z,101126.22
2022-08-25T22:47:07.016Z,101116.78
2022-08-25T22:49:35.379Z,101103.38
2022-08-25T22:52:02.515Z,101120.97
2022-08-25T22:54:29.893Z,101120.97
2022-08-25T22:56:56.583Z,101110.13
2022-08-25T22:59:23.080Z,101103.88
2022-08-25T23:01:52.311Z,101101.00
2022-08-25T23:04:19.237Z,101108.47
2022-08-25T23:06:46.195Z,101103.06
2022-08-25T23:09:13.896Z,101089.22
2022-08-25T23:11:40.703Z,101098.47
2022-08-25T23:14:10.893Z,101095.75
2022-08-25T23:16:42.155Z,101090.34
2022-08-25T23:19:13.649Z,101086.81
2022-08-25T23:22:00.862Z,101082.63
2022-08-25T23:24:30.074Z,101085.09
2022-08-25T23:26:58.956Z,101068.56
2022-08-25T23:29:27.554Z,101079.44
2022-08-25T23:31:54.100Z,101081.56
2022-08-25T23:34:21.540Z,101070.09
2022-08-25T23:36:48.685Z,101078.03
2022-08-25T23:39:15.122Z,101077.19
2022-08-25T23:41:41.822Z,101066.34
2022-08-25T23:44:11.542Z,101054.66
2022-08-25T23:46:38.678Z,101053.81
2022-08-25T23:49:08.067Z,101053.81
2022-08-25T23:51:37.138Z,101046.09
2022-08-25T23:54:10.859Z,101033.34
2022-08-25T23:56:44.428Z,101049.22
2022-08-25T23:59:17.822Z,100992.88
